Grass Valley, OR

6:24 AM PST on February 24, 2017 (GMT -0800)
1 Mile South of Downtown | | Change Station

Elev 2398 ft 45.33 °N, 120.79 °W | Updated 9 seconds ago

Partly Cloudy
Partly Cloudy
22.6 °F
Feels Like 23 °F
N
0.0
Wind Variable Wind from SSE
Gusts 2.0 mph

Today
High -- | Low -- °F
--% Chance of Precip.
Yesterday
High -- | Low -- °F
Precip. -- in
Pressure 30.18 in
Visibility 10.0 miles
Clouds Clear
Windchill 23 °F
Dew Point 20 °F
Humidity 88%
Rainfall 0.00 in
Snow Depth Not available.
6:49 AM 5:43 PM
Waning Crescent, 5% visible
METAR KRDM 241356Z 20004KT 10SM CLR M07/M11 A3009 RMK AO2 SLP220 I1000 T10671106
Pressure 30.18 in
Visibility 10.0 miles
Clouds Clear
Windchill 23 °F
Dew Point 20 °F
Humidity 88%
Rainfall 0.00 in
Snow Depth Not available.
6:49 AM 5:43 PM
Waning Crescent, 5% visible
METAR KRDM 241356Z 20004KT 10SM CLR M07/M11 A3009 RMK AO2 SLP220 I1000 T10671106

Get Your Daily Forecast Email!

Thanks for signing up!

Be on the lookout for a verification email in your inbox.

You'll start receiving the daily forecast at 8 AM.

×

10-Day Weather Forecast

Almanac

Astronomy

Feb. 24, 2017 Rise Set
Actual Time
Civil Twilight
Nautical Twilight
Astronomical Twilight
Moon
Length of Visible Light
Length of Day
Tomorrow will be .
, % of the Moon is Illuminated

Today's Extremes

State Highs State Lows

Community

WunderPhotos

Upload Photos

1,962,540 photos uploaded!

WunderBlog® & News

Nearby

Air Quality

  Air Quality AQ Index Pollutant
Not available.

Snow Depth

Station Depth Elevation

Earthquake Activity

City Distance Mag. Time & Date
Minimum magnitude displayed is 2.5.

Coastal Water Temperatures

Place Temperature

Stations

Nearby Weather Stations

Station Location Temp. Windchill Dew Point Humidity Wind Precip. Elev Updated Type
                   

Watches & Warnings

There are currently no watches in effect.